header
  MetSoc Home            Publications            Contacts  

List of Strewnfield Members

Searching for strewnfield members of Villalbeto de la Peña
This meteorite fell in 2004
38 strewnfield members found.
Google Earth Plot in Google Earth

Google Earth no labels Plot in Google Earth with no labels

(Click on a column heading to sort)

Meteorite [mass name] Synonyn Mass Latitude Longitude Class Finder Found Description Main mass loc Type spec mass Type spec loc Approved Ref
Villalbeto de la Peña [1] 42 g 42°47'27"N 4°40'11"W 2004-01-11   2020-01-11 Pierre-Marie Pelé
Villalbeto de la Peña [2] 21.8 g 42°47'44"N 4°40'7"W 2004-01-12   2020-01-11 Pierre-Marie Pelé
Villalbeto de la Peña [3] 52.8 g 42°47'29"N 4°40'16"W 2004-01-12   2020-01-11 Pierre-Marie Pelé
Villalbeto de la Peña [4] 33.2 g 42°47'37"N 4°40'8"W 2004-01-14   2020-01-11 Pierre-Marie Pelé
Villalbeto de la Peña [5] 18.3 g 42°47'31"N 4°40'14"W 2004-01-16   2020-01-11 Pierre-Marie Pelé
Villalbeto de la Peña [6] 46.5 g 42°47'29"N 4°40'10"W 2004-01-16   2020-01-11 Pierre-Marie Pelé
Villalbeto de la Peña [7] 11 g 42°46'55"N 4°40'48"W 2004-01-24   2020-01-11 Pierre-Marie Pelé
Villalbeto de la Peña [8] 58.9 g 42°48'48"N 4°40'14"W 2004-01-25   2020-01-11 Pierre-Marie Pelé
Villalbeto de la Peña [9] 38.1 g 42°48'56"N 4°40'24"W 2004-01-25   2020-01-11 Pierre-Marie Pelé
Villalbeto de la Peña [10] 185.7 g 42°48'31"N 4°40'20"W 2004-01-25   2020-01-11 Pierre-Marie Pelé
Villalbeto de la Peña [11] 66.3 g 42°48'13"N 4°40'30"W 2004-01-25   2020-01-11 Pierre-Marie Pelé
Villalbeto de la Peña [12] 119.1 g 42°48'6"N 4°40'36"W 2004-01-25   2020-01-11 Pierre-Marie Pelé
Villalbeto de la Peña [13] 61.8 g 42°48'28"N 4°40'23"W 2004-01-27   2020-01-11 Pierre-Marie Pelé
Villalbeto de la Peña [14] 32 g 42°48'13"N 4°40'1"W 2004-02-04   2020-01-11 Pierre-Marie Pelé
Villalbeto de la Peña [15] 126 g 42°48'26"N 4°39'52"W 2004-02-07   2020-01-11 Pierre-Marie Pelé
Villalbeto de la Peña [16] 34.7 g 42°48'55"N 4°39'57"W 2004-02-07   2020-01-11 Pierre-Marie Pelé
Villalbeto de la Peña [17] 32.1 g 42°48'6"N 4°40'1"W 2004-02-07   2020-01-11 Pierre-Marie Pelé
Villalbeto de la Peña [18] 50.2 g 42°47'40"N 4°40'11"W 2004-02-21   2020-01-11 Pierre-Marie Pelé
Villalbeto de la Peña [19] 51.6 g 42°47'41"N 4°40'0"W 2004-02-22   2020-01-11 Pierre-Marie Pelé
Villalbeto de la Peña [20] 98.2 g 42°48'43"N 4°39'59"W 2004-03-04   2020-01-11 Pierre-Marie Pelé
Villalbeto de la Peña [21] 77.6 g 42°48'23"N 4°39'21"W 2004-03-10   2020-01-11 Pierre-Marie Pelé
Villalbeto de la Peña [22] 1367 g 42°53'9"N 4°33'55"W 2004-03-10 main mass   2020-01-11 Pierre-Marie Pelé
Villalbeto de la Peña [23] 46.8 g 42°48'23"N 4°38'39"W 2004-03-13   2020-01-11 Pierre-Marie Pelé
Villalbeto de la Peña [24] 145.7 g 42°48'46"N 4°40'23"W 2004-03-16   2020-01-11 Pierre-Marie Pelé
Villalbeto de la Peña [25] 394 g 42°50'25"N 4°38'51"W 2004-03-17 flight orientation   2020-01-11 Pierre-Marie Pelé
Villalbeto de la Peña [26] 56.4 g 42°48'12"N 4°39'47"W 2004-04-19   2020-01-11 Pierre-Marie Pelé
Villalbeto de la Peña [27] 39 g 42°50'57"N 4°38'2"W 2004-04-21 fragment with clast   2020-01-11 Pierre-Marie Pelé
Villalbeto de la Peña [28] 201 g 42°50'23"N 4°38'20"W 2004-05-07   2020-01-11 Pierre-Marie Pelé
Villalbeto de la Peña [29] 340 g 42°51'11"N 4°38'6"W 2004-05-09   2020-01-11 Pierre-Marie Pelé
Villalbeto de la Peña [30] 220 g 42°50'11"N 4°38'14"W 2004-05-18   2020-01-11 Pierre-Marie Pelé
Villalbeto de la Peña [31] 78.8 g 42°48'32"N 4°40'19"W 2004-05-22   2020-01-11 Pierre-Marie Pelé
Villalbeto de la Peña [32] 242 g 42°49'37"N 4°39'15"W 2004-05-24 same location   2020-01-11 Pierre-Marie Pelé
Villalbeto de la Peña [33] 526 g 42°51'18"N 4°37'55"W 2005-05-26 fragment with clast   2020-01-11 Pierre-Marie Pelé
Villalbeto de la Peña [34] 129 g 42°49'19"N 4°39'23"W 2005-09-08   2020-01-11 Pierre-Marie Pelé
Villalbeto de la Peña [35] 168 g 42°48'7"N 4°39'56"W 2005-09-23   2020-01-11 Pierre-Marie Pelé
Villalbeto de la Peña [36] 48.5 g 42°48'1"N 4°39'48"W 2005-09-24   2020-01-11 Pierre-Marie Pelé
Villalbeto de la Peña [37] 145 g 42°48'13"N 4°40'39"W 2006-06-22   2020-01-11 Pierre-Marie Pelé
Villalbeto de la Peña [38] 30 g 2012-05-01   2020-01-11 Pierre-Marie Pelé